Time;durP1;ratioP1;P1;durP2;ratioP2;P2;SDS_P1;SDS_P2;PMS_P1;PMS_P2;Temp;Humidity;BMP_temperature;BMP_pressure;BME280_temperature;BME280_humidity;BME280_pressure;Samples;Min_cycle;Max_cycle;Signal;HPM_P1;HPM_P2
2021/04/23 00:02:06;;;;;;;1.83;0.45;;;;;;;21.74;nan;101111.56;5054163;28;20060;-61
2021/04/23 00:04:31;;;;;;;1.02;0.38;;;;;;;21.75;nan;101118.72;5054526;28;20055;-61
2021/04/23 00:06:58;;;;;;;0.77;0.10;;;;;;;21.79;nan;101109.09;5054348;28;20029;-61
2021/04/23 00:09:28;;;;;;;0.93;0.40;;;;;;;21.83;nan;101121.34;5054262;28;20136;-62
2021/04/23 00:12:05;;;;;;;1.20;0.30;;;;;;;21.86;nan;101117.41;5054546;28;20079;-61
2021/04/23 00:14:37;;;;;;;1.48;0.30;;;;;;;21.87;nan;101119.97;5054278;28;20029;-60
2021/04/23 00:17:02;;;;;;;0.35;0.10;;;;;;;21.89;nan;101126.09;5054215;28;20074;-61
2021/04/23 00:19:28;;;;;;;1.05;0.40;;;;;;;21.87;nan;101122.69;5054232;28;20025;-61
2021/04/23 00:21:55;;;;;;;0.80;0.40;;;;;;;21.90;nan;101111.38;5054337;28;20025;-61
2021/04/23 00:24:21;;;;;;;1.05;0.30;;;;;;;21.93;nan;101118.34;5054077;28;20031;-60
2021/04/23 00:26:47;;;;;;;1.52;0.30;;;;;;;21.89;nan;101120.63;5054309;28;20461;-61
2021/04/23 00:29:13;;;;;;;2.25;0.60;;;;;;;21.89;nan;101126.09;5053853;28;20138;-60
2021/04/23 00:31:39;;;;;;;2.75;0.73;;;;;;;21.92;nan;101125.72;5054398;28;20025;-61
2021/04/23 00:34:05;;;;;;;1.38;0.47;;;;;;;21.95;nan;101131.84;5052712;28;20119;-61
2021/04/23 00:36:30;;;;;;;0.85;0.15;;;;;;;21.96;nan;101141.75;5053687;28;20058;-61
2021/04/23 00:38:55;;;;;;;1.55;0.30;;;;;;;21.95;nan;101131.84;5053879;28;20032;-62
2021/04/23 00:41:29;;;;;;;0.98;0.30;;;;;;;21.95;nan;101140.06;5053770;28;20025;-61
2021/04/23 00:43:58;;;;;;;1.13;0.30;;;;;;;21.95;nan;101132.69;5053934;28;20032;-61
2021/04/23 00:46:29;;;;;;;1.33;0.28;;;;;;;21.92;nan;101125.72;5053951;28;20377;-61
2021/04/23 00:48:55;;;;;;;1.83;0.40;;;;;;;21.88;nan;101113.44;5053496;28;20055;-60
2021/04/23 00:51:24;;;;;;;0.90;0.22;;;;;;;21.96;nan;101128.91;5053800;28;20033;-62
2021/04/23 00:53:51;;;;;;;1.73;0.50;;;;;;;21.97;nan;101124.28;5054059;28;20021;-62
2021/04/23 00:56:24;;;;;;;1.08;0.32;;;;;;;22.00;nan;101121.19;5053089;28;20052;-61
2021/04/23 00:58:50;;;;;;;1.45;0.20;;;;;;;22.00;nan;101121.19;5053607;28;20083;-62
2021/04/23 01:01:23;;;;;;;0.40;0.20;;;;;;;22.02;nan;101130.06;5053294;28;20029;-61
2021/04/23 01:03:49;;;;;;;0.40;0.38;;;;;;;21.99;nan;101136.75;5053550;28;20470;-61
2021/04/23 01:06:17;;;;;;;1.60;0.35;;;;;;;21.98;nan;101126.84;5053341;28;20039;-62
2021/04/23 01:08:47;;;;;;;1.73;0.50;;;;;;;21.95;nan;101131.84;5053673;28;20079;-61
2021/04/23 01:11:15;;;;;;;1.85;0.30;;;;;;;21.95;nan;101140.06;5053074;28;20025;-61
2021/04/23 01:13:41;;;;;;;2.45;0.30;;;;;;;21.93;nan;101137.50;5053880;28;20047;-61
2021/04/23 01:16:11;;;;;;;3.22;0.60;;;;;;;21.95;nan;101142.81;5053193;28;20389;-61
2021/04/23 01:18:39;;;;;;;1.13;0.20;;;;;;;21.98;nan;101142.41;5053178;28;20021;-62
2021/04/23 01:21:13;;;;;;;1.10;0.65;;;;;;;21.96;nan;101137.13;5052966;28;20028;-60
2021/04/23 01:23:42;;;;;;;1.25;0.40;;;;;;;21.98;nan;101140.53;5053091;28;20375;-62
2021/04/23 01:26:09;;;;;;;0.98;0.40;;;;;;;21.98;nan;101126.00;5053086;28;20025;-61
2021/04/23 01:28:35;;;;;;;0.52;0.20;;;;;;;21.99;nan;101135.91;5052854;28;20116;-62
2021/04/23 01:31:04;;;;;;;2.03;0.43;;;;;;;21.93;nan;101127.41;5052950;28;20029;-61
2021/04/23 01:33:29;;;;;;;1.05;0.52;;;;;;;21.98;nan;101136.94;5052837;28;20400;-62
2021/04/23 01:35:55;;;;;;;0.45;0.20;;;;;;;22.00;nan;101135.72;5052995;28;20055;-61
2021/04/23 01:38:21;;;;;;;0.63;0.30;;;;;;;21.99;nan;101135.91;5052691;28;20017;-62
2021/04/23 01:40:47;;;;;;;1.00;0.30;;;;;;;21.97;nan;101132.50;5052939;28;20029;-61
2021/04/23 01:43:14;;;;;;;2.08;0.47;;;;;;;21.96;nan;101130.81;5052609;28;20384;-62
2021/04/23 01:45:40;;;;;;;0.35;0.20;;;;;;;21.99;nan;101144.13;5052798;28;20037;-61
2021/04/23 01:48:06;;;;;;;1.48;0.47;;;;;;;22.00;nan;101137.59;5052597;28;20021;-61
2021/04/23 01:50:32;;;;;;;2.65;0.40;;;;;;;21.98;nan;101140.53;5052573;28;20059;-61
2021/04/23 01:52:58;;;;;;;1.08;0.20;;;;;;;21.97;nan;101138.84;5052661;28;20021;-62
2021/04/23 01:55:24;;;;;;;2.30;0.40;;;;;;;21.98;nan;101139.69;5052216;28;20048;-61
2021/04/23 01:57:50;;;;;;;1.10;0.28;;;;;;;21.98;nan;101147.88;5052659;28;20334;-61
2021/04/23 02:00:22;;;;;;;1.20;0.20;;;;;;;21.96;nan;101150.81;5052243;28;20529;-63
2021/04/23 02:02:51;;;;;;;2.95;0.57;;;;;;;21.99;nan;101146.84;5052611;28;20024;-62
2021/04/23 02:05:17;;;;;;;1.08;0.60;;;;;;;21.95;nan;101142.81;5052235;28;20078;-62
2021/04/23 02:07:43;;;;;;;0.57;0.30;;;;;;;21.94;nan;101139.22;5052680;28;20112;-62
2021/04/23 02:10:13;;;;;;;0.90;0.52;;;;;;;21.98;nan;101156.94;5052355;28;20515;-62
2021/04/23 02:12:39;;;;;;;1.67;0.28;;;;;;;21.96;nan;101152.72;5052383;28;20583;-60
2021/04/23 02:15:07;;;;;;;3.13;0.50;;;;;;;21.96;nan;101149.97;5052631;28;20361;-61
2021/04/23 02:17:33;;;;;;;1.35;0.40;;;;;;;21.97;nan;101148.94;5052259;28;20029;-61
2021/04/23 02:19:58;;;;;;;1.45;0.22;;;;;;;21.97;nan;101149.78;5052427;28;20047;-63
2021/04/23 02:22:24;;;;;;;0.75;0.30;;;;;;;21.92;nan;101141.28;5052434;28;20037;-61
2021/04/23 02:24:50;;;;;;;1.95;0.47;;;;;;;21.96;nan;101144.50;5051840;28;20031;-62
2021/04/23 02:27:15;;;;;;;0.60;0.13;;;;;;;21.97;nan;101149.78;5051978;28;20028;-61
2021/04/23 02:29:40;;;;;;;1.42;0.35;;;;;;;21.98;nan;101150.63;5052274;28;20067;-61
2021/04/23 02:32:05;;;;;;;1.23;0.43;;;;;;;21.98;nan;101151.47;5052147;28;20036;-62
2021/04/23 02:34:31;;;;;;;2.13;0.32;;;;;;;21.97;nan;101155.25;5052462;28;20147;-60
2021/04/23 02:36:56;;;;;;;1.27;0.20;;;;;;;21.94;nan;101155.63;5052454;28;20107;-61
2021/04/23 02:39:22;;;;;;;1.33;0.38;;;;;;;21.94;nan;101152.91;5051975;28;20457;-60
2021/04/23 02:41:51;;;;;;;1.38;0.32;;;;;;;21.96;nan;101152.72;5052211;28;20113;-63
2021/04/23 02:44:17;;;;;;;3.90;0.80;;;;;;;21.89;nan;101142.53;5051897;28;20031;-61
2021/04/23 02:46:43;;;;;;;1.80;0.60;;;;;;;21.95;nan;101153.75;5052146;28;20107;-62
2021/04/23 02:49:09;;;;;;;1.02;0.30;;;;;;;21.96;nan;101158.19;5051687;28;20537;-61
2021/04/23 02:51:42;;;;;;;0.75;0.30;;;;;;;21.93;nan;101154.78;5051998;28;20041;-61
2021/04/23 02:54:08;;;;;;;0.98;0.28;;;;;;;21.90;nan;101064.84;5051927;28;20575;-61
2021/04/23 02:56:34;;;;;;;1.75;0.55;;;;;;;21.89;nan;101054.94;5051724;28;20053;-62
2021/04/23 02:59:01;;;;;;;1.23;0.30;;;;;;;21.90;nan;101053.03;5051937;28;20373;-62
2021/04/23 03:01:31;;;;;;;1.50;0.40;;;;;;;21.98;nan;101227.28;5051744;28;20021;-61
2021/04/23 03:03:57;;;;;;;2.50;0.32;;;;;;;21.92;nan;101166.78;5052011;28;20043;-60
2021/04/23 03:06:22;;;;;;;1.05;0.30;;;;;;;21.95;nan;101167.44;5051942;28;20461;-61
2021/04/23 03:08:47;;;;;;;1.52;0.30;;;;;;;21.92;nan;101166.78;5051872;28;20033;-61
2021/04/23 03:11:16;;;;;;;2.85;0.32;;;;;;;21.94;nan;101172.06;5051592;28;20033;-61
2021/04/23 03:13:46;;;;;;;0.65;0.28;;;;;;;21.93;nan;101148.47;5051837;28;20029;-61
2021/04/23 03:16:11;;;;;;;2.75;0.60;;;;;;;21.93;nan;101160.25;5051768;28;20132;-62
2021/04/23 03:18:41;;;;;;;1.23;0.45;;;;;;;21.95;nan;101156.47;5051718;28;20032;-62
2021/04/23 03:21:08;;;;;;;2.17;0.45;;;;;;;21.93;nan;101164.88;5051661;28;20075;-60
2021/04/23 03:23:34;;;;;;;1.17;0.32;;;;;;;21.94;nan;101161.09;5051682;28;20534;-62
2021/04/23 03:26:02;;;;;;;0.75;0.38;;;;;;;21.90;nan;101149.69;5051754;28;20033;-61
2021/04/23 03:28:28;;;;;;;0.95;0.30;;;;;;;21.95;nan;101154.59;5051389;28;20103;-62
2021/04/23 03:30:53;;;;;;;1.63;0.30;;;;;;;21.96;nan;101160.91;5051698;28;20117;-60
2021/04/23 03:33:19;;;;;;;2.28;0.45;;;;;;;21.93;nan;101148.47;5051492;28;20025;-63
2021/04/23 03:35:50;;;;;;;0.63;0.30;;;;;;;21.95;nan;101151.00;5052534;28;20067;-61
2021/04/23 03:38:17;;;;;;;0.65;0.20;;;;;;;21.95;nan;101157.34;5054959;28;20024;-61
2021/04/23 03:40:42;;;;;;;3.15;0.38;;;;;;;21.95;nan;101167.44;5055204;28;20020;-62
2021/04/23 03:43:09;;;;;;;1.35;0.30;;;;;;;21.97;nan;101170.81;5054905;28;20522;-61
2021/04/23 03:45:35;;;;;;;1.20;0.32;;;;;;;21.97;nan;101173.56;5055269;28;20029;-62
2021/04/23 03:48:01;;;;;;;2.15;0.40;;;;;;;21.90;nan;101166.13;5054966;28;20032;-61
2021/04/23 03:50:29;;;;;;;1.42;0.40;;;;;;;21.95;nan;101178.38;5054802;28;20029;-61
2021/04/23 03:52:57;;;;;;;1.15;0.40;;;;;;;21.96;nan;101185.56;5054892;28;20071;-62
2021/04/23 03:55:25;;;;;;;1.15;0.30;;;;;;;21.97;nan;101165.34;5054458;28;20045;-60
2021/04/23 03:57:50;;;;;;;1.52;0.43;;;;;;;21.96;nan;101180.09;5055134;28;20094;-61
2021/04/23 04:00:20;;;;;;;2.20;0.90;;;;;;;21.92;nan;101180.47;5054800;28;20112;-61
2021/04/23 04:02:46;;;;;;;2.53;0.57;;;;;;;23.23;nan;101173.34;5054573;28;20069;-61
2021/04/23 04:05:12;;;;;;;1.33;0.38;;;;;;;23.62;nan;101176.47;5054416;28;20052;-61
2021/04/23 04:07:37;;;;;;;0.17;0.13;;;;;;;23.49;nan;101190.06;5034553;28;20030;-61
2021/04/23 04:10:06;;;;;;;0.32;0.13;;;;;;;23.19;nan;101177.53;5034703;28;20077;-62
2021/04/23 04:12:32;;;;;;;1.75;0.30;;;;;;;23.17;nan;101171.38;5034556;28;20021;-61
2021/04/23 04:14:57;;;;;;;0.98;0.30;;;;;;;23.17;nan;101187.84;5034576;28;20551;-61
2021/04/23 04:17:23;;;;;;;1.65;0.50;;;;;;;23.13;nan;101183.78;5034363;28;20025;-60
2021/04/23 04:19:48;;;;;;;0.35;0.20;;;;;;;23.20;nan;101179.22;5034467;28;20154;-62
2021/04/23 04:22:13;;;;;;;0.77;0.15;;;;;;;23.22;nan;101178.00;5034374;28;20029;-61
2021/04/23 04:24:39;;;;;;;0.88;0.22;;;;;;;23.27;nan;101180.13;5034324;28;20057;-63
2021/04/23 04:27:04;;;;;;;0.50;0.10;;;;;;;23.39;nan;101184.06;5034249;28;20143;-61
2021/04/23 04:29:29;;;;;;;1.15;0.10;;;;;;;23.38;nan;101182.38;5052334;28;20384;-62
2021/04/23 04:31:55;;;;;;;0.35;0.10;;;;;;;23.36;nan;101184.47;5054275;28;20021;-61
2021/04/23 04:34:20;;;;;;;0.00;0.00;;;;;;;23.42;nan;101186.41;5053971;28;20024;-61
2021/04/23 04:36:46;;;;;;;0.30;0.10;;;;;;;23.44;nan;101184.31;5054113;28;20036;-62
2021/04/23 04:39:12;;;;;;;0.77;0.10;;;;;;;23.39;nan;101193.16;5053682;28;20021;-62
2021/04/23 04:41:37;;;;;;;1.00;0.10;;;;;;;23.41;nan;101187.47;5054275;28;20052;-61
2021/04/23 04:44:03;;;;;;;0.85;0.10;;;;;;;23.52;nan;101189.69;5054015;28;20380;-63
2021/04/23 04:46:29;;;;;;;1.00;0.10;;;;;;;23.37;nan;101186.16;5053214;28;20127;-62
2021/04/23 04:48:54;;;;;;;0.70;0.40;;;;;;;23.44;nan;101189.81;5053607;28;20029;-62
2021/04/23 04:51:19;;;;;;;1.02;0.40;;;;;;;23.32;nan;101185.88;5053623;28;20027;-62
2021/04/23 04:53:45;;;;;;;0.25;0.10;;;;;;;23.44;nan;101199.94;5053883;28;20029;-62
2021/04/23 04:56:10;;;;;;;0.65;0.20;;;;;;;23.49;nan;101192.78;5053757;28;20045;-62
2021/04/23 04:58:38;;;;;;;0.15;0.00;;;;;;;23.43;nan;101199.09;5053395;28;20071;-62
2021/04/23 05:01:06;;;;;;;1.17;0.20;;;;;;;23.43;nan;101201.81;5053500;28;20104;-62
2021/04/23 05:03:31;;;;;;;0.43;0.10;;;;;;;23.41;nan;101184.72;5053702;28;20535;-62
2021/04/23 05:05:57;;;;;;;0.63;0.20;;;;;;;23.56;nan;101190.97;5053869;28;20330;-62
2021/04/23 05:08:22;;;;;;;0.25;0.10;;;;;;;23.58;nan;101186.16;5053257;28;20027;-62
2021/04/23 05:10:48;;;;;;;0.32;0.10;;;;;;;23.44;nan;101187.06;5052212;28;20460;-62
2021/04/23 05:13:13;;;;;;;0.22;0.10;;;;;;;23.52;nan;101197.91;5053192;28;20094;-62
2021/04/23 05:15:40;;;;;;;0.65;0.20;;;;;;;23.57;nan;101198.19;5053357;28;20032;-62
2021/04/23 05:18:06;;;;;;;0.17;0.00;;;;;;;23.63;nan;101186.41;5053297;28;20017;-63
2021/04/23 05:20:31;;;;;;;0.45;0.10;;;;;;;23.65;nan;101210.91;5053438;28;20051;-62
2021/04/23 05:22:57;;;;;;;0.35;0.10;;;;;;;23.51;nan;101209.91;5053153;28;20100;-62
2021/04/23 05:25:24;;;;;;;0.85;0.10;;;;;;;23.70;nan;101203.81;5052070;28;20055;-61
2021/04/23 05:27:50;;;;;;;1.48;0.10;;;;;;;23.61;nan;101196.75;5052087;28;20029;-60
2021/04/23 05:30:19;;;;;;;0.52;0.22;;;;;;;23.58;nan;101199.88;5051825;28;20032;-61
2021/04/23 05:32:44;;;;;;;291.25;186.90;;;;;;;23.60;nan;101203.28;5051373;28;20039;-68
2021/04/23 05:35:11;;;;;;;155.60;84.35;;;;;;;23.58;nan;101210.88;5052804;28;20094;-60
2021/04/23 05:37:37;;;;;;;89.50;52.58;;;;;;;23.61;nan;101204.97;5052777;28;20021;-60
2021/04/23 05:40:06;;;;;;;56.70;35.15;;;;;;;23.54;nan;101220.50;5050755;28;20075;-59
2021/04/23 05:42:31;;;;;;;37.45;26.60;;;;;;;23.65;nan;101217.25;5051126;28;20476;-60
2021/04/23 05:44:56;;;;;;;29.17;19.58;;;;;;;23.63;nan;101218.50;5043824;28;20041;-60
2021/04/23 05:47:24;;;;;;;21.13;13.93;;;;;;;23.56;nan;101221.16;5051226;28;20025;-60
2021/04/23 05:49:49;;;;;;;17.08;11.20;;;;;;;23.59;nan;101217.22;5055196;28;20369;-60
2021/04/23 05:52:14;;;;;;;11.88;8.80;;;;;;;23.58;nan;101216.34;5065964;28;20108;-60
2021/04/23 05:54:40;;;;;;;9.80;7.50;;;;;;;23.67;nan;101226.13;5060961;28;20024;-61
2021/04/23 05:57:05;;;;;;;8.75;5.40;;;;;;;23.64;nan;101212.81;5050390;28;20524;-60
2021/04/23 05:59:30;;;;;;;7.25;4.88;;;;;;;23.61;nan;101231.56;5050640;28;20017;-60
2021/04/23 06:01:56;;;;;;;5.90;4.07;;;;;;;23.69;nan;101226.81;5054434;28;20020;-61
2021/04/23 06:04:22;;;;;;;3.35;2.70;;;;;;;23.69;nan;101224.06;5063053;28;20021;-60
2021/04/23 06:06:47;;;;;;;3.45;2.63;;;;;;;23.62;nan;101242.34;5049374;28;20107;-59
2021/04/23 06:09:12;;;;;;;1.85;1.65;;;;;;;23.63;nan;101224.84;5047444;28;20388;-61
2021/04/23 06:11:39;;;;;;;2.50;1.52;;;;;;;23.63;nan;101224.84;5063764;28;20035;-60
2021/04/23 06:14:05;;;;;;;2.15;1.63;;;;;;;23.62;nan;101231.38;5048055;28;20407;-60
2021/04/23 06:16:30;;;;;;;1.63;1.40;;;;;;;23.60;nan;101230.72;5050180;28;20599;-61
2021/04/23 06:18:56;;;;;;;1.50;1.10;;;;;;;23.62;nan;101236.88;5047596;28;20228;-60
2021/04/23 06:21:22;;;;;;;2.00;1.30;;;;;;;23.65;nan;101250.19;5049223;28;20278;-61
2021/04/23 06:23:47;;;;;;;1.60;1.17;;;;;;;23.81;nan;101242.72;5054172;28;20028;-59
2021/04/23 06:26:12;;;;;;;0.70;0.70;;;;;;;23.63;nan;101252.28;5052739;28;20048;-60
2021/04/23 06:28:38;;;;;;;1.77;0.82;;;;;;;23.65;nan;101252.94;5048902;28;20493;-60
2021/04/23 06:31:04;;;;;;;0.77;0.77;;;;;;;23.73;nan;101245.63;5048001;28;20500;-60
2021/04/23 06:33:36;;;;;;;1.20;0.57;;;;;;;23.73;nan;101254.72;5053271;28;20017;-60
2021/04/23 06:36:04;;;;;;;1.02;0.60;;;;;;;23.63;nan;101257.78;5055064;28;20013;-60
2021/04/23 06:38:29;;;;;;;2.13;0.88;;;;;;;23.56;nan;101272.47;5052371;28;20021;-61
2021/04/23 06:40:54;;;;;;;43.65;33.60;;;;;;;23.77;nan;101268.88;5044965;28;20052;-60
2021/04/23 06:43:20;;;;;;;282.58;171.57;;;;;;;23.79;nan;101272.28;5044936;28;20036;-62
2021/04/23 06:45:45;;;;;;;122.22;78.18;;;;;;;23.65;nan;101268.56;5046346;28;20025;-62
2021/04/23 06:48:14;;;;;;;86.60;55.40;;;;;;;23.70;nan;101275.19;5052207;28;20132;-61
2021/04/23 06:50:40;;;;;;;61.78;39.08;;;;;;;23.77;nan;101268.88;5051932;28;20048;-62
2021/04/23 06:53:06;;;;;;;40.95;29.50;;;;;;;23.66;nan;101273.84;5045977;28;20059;-61
2021/04/23 06:55:31;;;;;;;27.63;20.95;;;;;;;23.78;nan;101276.06;5054014;28;20041;-62
2021/04/23 06:57:56;;;;;;;22.50;16.15;;;;;;;23.66;nan;101278.50;5051182;28;20483;-62
2021/04/23 07:00:28;;;;;;;16.42;12.27;;;;;;;23.70;nan;101279.81;5049632;28;20112;-61
2021/04/23 07:02:53;;;;;;;9.82;8.57;;;;;;;23.73;nan;101289.56;5047862;28;21589;-61
2021/04/23 07:05:19;;;;;;;8.00;6.35;;;;;;;23.63;nan;101296.19;5048694;28;20037;-61
2021/04/23 07:07:45;;;;;;;10.75;6.15;;;;;;;23.72;nan;101283.22;5055450;28;20036;-60
2021/04/23 07:10:14;;;;;;;5.97;4.35;;;;;;;23.73;nan;101284.06;5050538;28;20021;-63
2021/04/23 07:12:40;;;;;;;6.03;3.63;;;;;;;23.68;nan;101299.22;5051625;28;20036;-60
2021/04/23 07:15:07;;;;;;;6.05;3.55;;;;;;;23.88;nan;101298.56;5054451;28;20033;-61
2021/04/23 07:17:32;;;;;;;4.35;3.28;;;;;;;23.78;nan;101309.03;5057057;28;20391;-62
2021/04/23 07:19:58;;;;;;;3.05;2.30;;;;;;;23.93;nan;101312.56;5059152;28;20263;-62
2021/04/23 07:22:23;;;;;;;3.05;2.20;;;;;;;23.92;nan;101316.34;5056257;28;20029;-60
2021/04/23 07:24:48;;;;;;;2.15;1.90;;;;;;;24.17;nan;101325.00;5049928;28;20029;-61
2021/04/23 07:27:14;;;;;;;36.75;3.42;;;;;;;24.20;nan;101320.00;5051704;28;20036;-60
2021/04/23 07:29:39;;;;;;;637.22;152.13;;;;;;;24.05;nan;101319.22;5055353;28;20436;-61
2021/04/23 07:32:05;;;;;;;312.40;70.53;;;;;;;23.77;nan;101324.66;5053833;28;20036;-60
2021/04/23 07:34:30;;;;;;;189.48;47.50;;;;;;;23.39;nan;101318.50;5056473;28;20032;-61
2021/04/23 07:36:55;;;;;;;112.90;32.80;;;;;;;23.43;nan;101328.03;5068218;28;20024;-61
2021/04/23 07:39:26;;;;;;;58.83;21.08;;;;;;;23.28;nan;101340.94;5057025;28;20090;-60
2021/04/23 07:41:51;;;;;;;42.88;16.05;;;;;;;23.25;nan;101346.81;5057742;28;20055;-59
2021/04/23 07:44:16;;;;;;;29.00;10.63;;;;;;;;;;5054911;28;20447;-60
2021/04/23 07:46:42;;;;;;;1939.13;277.08;;;;;;;23.20;nan;101343.81;5053823;28;20021;-61
2021/04/23 07:49:07;;;;;;;300.70;43.38;;;;;;;23.17;nan;101355.13;5054259;28;20025;-61
2021/04/23 07:51:32;;;;;;;144.73;24.05;;;;;;;23.07;nan;101350.81;5060440;28;20040;-60
2021/04/23 07:53:57;;;;;;;86.03;16.25;;;;;;;23.10;nan;101364.13;5063118;28;20031;-60
2021/04/23 07:56:23;;;;;;;43.95;10.55;;;;;;;23.17;nan;101360.63;5074618;22;20560;-60
2021/04/23 07:58:48;;;;;;;26.08;6.80;;;;;;;23.05;nan;101361.13;5069695;28;20024;-60
2021/04/23 08:01:13;;;;;;;13.15;4.32;;;;;;;23.04;nan;101351.19;5068234;28;20107;-59
2021/04/23 08:03:39;;;;;;;9.45;3.13;;;;;;;22.99;nan;101359.13;5053646;28;20039;-61
2021/04/23 08:06:04;;;;;;;6.50;2.17;;;;;;;22.96;nan;101364.13;5053661;28;20017;-60
2021/04/23 08:08:30;;;;;;;3.00;1.77;;;;;;;22.91;nan;101361.97;5053736;28;20523;-60
2021/04/23 08:10:55;;;;;;;2.83;1.77;;;;;;;22.96;nan;101358.66;5054738;28;20043;-60
2021/04/23 08:13:20;;;;;;;3.65;1.20;;;;;;;22.80;nan;101354.19;5052642;28;20447;-60
2021/04/23 08:15:46;;;;;;;1.50;1.30;;;;;;;22.93;nan;101359.88;5053817;28;20025;-59
2021/04/23 08:18:11;;;;;;;3.53;1.40;;;;;;;22.89;nan;101366.78;5054399;28;20025;-59
2021/04/23 08:20:36;;;;;;;1.33;1.23;;;;;;;22.86;nan;101358.97;5053484;28;20021;-60
2021/04/23 08:23:02;;;;;;;1.50;0.82;;;;;;;22.98;nan;101365.66;5051973;28;20025;-60
2021/04/23 08:25:28;;;;;;;2.72;1.45;;;;;;;23.00;nan;101355.34;5054140;28;20029;-61
2021/04/23 08:27:53;;;;;;;1.27;1.05;;;;;;;22.95;nan;101365.19;5052156;28;20048;-59
2021/04/23 08:30:25;;;;;;;0.98;0.70;;;;;;;22.96;nan;101375.97;5052200;28;20021;-60
2021/04/23 08:32:50;;;;;;;0.65;0.65;;;;;;;22.90;nan;101387.69;5054406;28;20032;-60
2021/04/23 08:35:16;;;;;;;0.88;0.70;;;;;;;22.83;nan;101369.41;5052752;28;20055;-60
2021/04/23 08:37:41;;;;;;;1.08;0.75;;;;;;;22.86;nan;101375.41;5053605;28;20025;-60
2021/04/23 08:40:09;;;;;;;0.90;0.60;;;;;;;22.91;nan;101367.47;5053684;28;20037;-60
2021/04/23 08:42:35;;;;;;;0.50;0.45;;;;;;;23.01;nan;101379.00;5053538;28;20055;-60
2021/04/23 08:45:04;;;;;;;0.68;0.40;;;;;;;22.87;nan;101366.13;5056051;28;20017;-60
2021/04/23 08:47:29;;;;;;;0.20;0.20;;;;;;;22.83;nan;101381.25;5047873;28;20526;-60
2021/04/23 08:49:58;;;;;;;0.38;0.25;;;;;;;22.88;nan;101377.97;5051400;28;20104;-60
2021/04/23 08:52:24;;;;;;;2.72;0.38;;;;;;;22.84;nan;101377.47;5051019;28;20040;-59
2021/04/23 08:54:50;;;;;;;0.50;0.30;;;;;;;22.81;nan;101377.81;5053803;28;20033;-60
2021/04/23 08:57:15;;;;;;;0.60;0.30;;;;;;;22.76;nan;101374.78;5052745;28;20392;-60
2021/04/23 08:59:40;;;;;;;1.15;0.38;;;;;;;22.95;nan;101368.78;5049098;28;20162;-60
2021/04/23 09:02:05;;;;;;;0.32;0.30;;;;;;;22.95;nan;101368.78;5030880;28;20380;-59
2021/04/23 09:04:31;;;;;;;0.68;0.32;;;;;;;22.87;nan;101388.06;5041878;28;20028;-60
2021/04/23 09:07:01;;;;;;;0.45;0.40;;;;;;;22.93;nan;101395.53;5045408;28;20021;-59
2021/04/23 09:09:34;;;;;;;0.60;0.40;;;;;;;22.95;nan;101389.84;5052904;28;20029;-60
2021/04/23 09:11:59;;;;;;;0.47;0.32;;;;;;;22.94;nan;101399.97;5054305;28;20109;-60
2021/04/23 09:14:25;;;;;;;0.20;0.20;;;;;;;22.87;nan;101399.03;5060136;28;20119;-60
2021/04/23 09:16:51;;;;;;;0.63;0.20;;;;;;;22.89;nan;101396.97;5062565;28;20032;-60
2021/04/23 09:19:29;;;;;;;0.30;0.20;;;;;;;22.89;nan;101396.97;5054829;28;20025;-61
2021/04/23 09:22:04;;;;;;;0.40;0.30;;;;;;;22.93;nan;101409.25;5041281;28;20482;-60
2021/04/23 09:24:35;;;;;;;0.70;0.30;;;;;;;22.90;nan;101425.22;5069348;28;20043;-60
2021/04/23 09:27:08;;;;;;;0.50;0.35;;;;;;;22.88;nan;101417.19;5059155;28;20025;-60
2021/04/23 09:29:36;;;;;;;0.20;0.20;;;;;;;22.89;nan;101418.88;5067127;28;20133;-60
2021/04/23 09:32:12;;;;;;;0.55;0.20;;;;;;;22.96;nan;101419.81;5043806;28;20484;-60
2021/04/23 09:34:58;;;;;;;0.50;0.15;;;;;;;22.88;nan;101419.94;5045504;28;20503;-60
2021/04/23 09:37:28;;;;;;;0.47;0.10;;;;;;;22.90;nan;101425.22;5050000;28;20377;-60
2021/04/23 09:40:11;;;;;;;0.60;0.20;;;;;;;22.96;nan;101419.81;5054212;28;20107;-59
2021/04/23 09:42:43;;;;;;;0.95;0.20;;;;;;;22.81;nan;101407.97;5061314;28;20021;-60
2021/04/23 09:45:09;;;;;;;0.50;0.20;;;;;;;22.74;nan;101427.06;5059227;28;20025;-59
2021/04/23 09:47:36;;;;;;;0.47;0.20;;;;;;;22.76;nan;101432.34;5039504;28;20033;-60
2021/04/23 09:50:04;;;;;;;0.65;0.20;;;;;;;22.87;nan;101431.94;5057339;28;20031;-59
2021/04/23 09:52:30;;;;;;;0.10;0.10;;;;;;;22.91;nan;101436.00;5059502;28;20024;-59
2021/04/23 09:55:03;;;;;;;0.25;0.10;;;;;;;22.84;nan;101437.75;5048926;28;20025;-60
2021/04/23 09:57:36;;;;;;;0.20;0.10;;;;;;;22.87;nan;101433.81;5026835;28;20397;-59
2021/04/23 10:00:06;;;;;;;1.05;0.73;;;;;;;22.93;nan;101424.84;5051149;28;20464;-60
2021/04/23 10:02:32;;;;;;;1.38;0.10;;;;;;;22.81;nan;101421.66;5056417;28;20041;-60
2021/04/23 10:04:58;;;;;;;0.57;0.20;;;;;;;22.88;nan;101427.31;5051735;28;20024;-60
2021/04/23 10:07:34;;;;;;;0.40;0.10;;;;;;;22.84;nan;101437.75;5046122;28;20033;-59
2021/04/23 10:10:05;;;;;;;0.40;0.10;;;;;;;22.91;nan;101452.44;5062063;28;20403;-60
2021/04/23 10:12:38;;;;;;;0.63;0.20;;;;;;;22.83;nan;101451.66;5062636;28;20031;-60
2021/04/23 10:15:20;;;;;;;0.57;0.10;;;;;;;22.87;nan;101442.91;5057101;28;20144;-60
2021/04/23 10:17:48;;;;;;;0.65;0.17;;;;;;;22.84;nan;101454.22;5065290;28;20123;-60
2021/04/23 10:20:17;;;;;;;1.20;0.30;;;;;;;22.87;nan;101453.03;5069599;28;20372;-60
2021/04/23 10:22:43;;;;;;;0.38;0.28;;;;;;;22.86;nan;101457.66;5050552;28;20353;-62
2021/04/23 10:25:09;;;;;;;34.60;27.80;;;;;;;23.32;nan;101462.97;5052184;28;20032;-60
2021/04/23 10:27:35;;;;;;;137.45;103.13;;;;;;;23.38;nan;101454.00;5052081;28;20060;-63
2021/04/23 10:30:06;;;;;;;68.65;53.05;;;;;;;22.99;nan;101452.34;5027780;28;20483;-60
2021/04/23 10:32:32;;;;;;;45.50;35.60;;;;;;;22.94;nan;101449.31;5047297;28;20067;-61
2021/04/23 10:34:58;;;;;;;29.67;24.40;;;;;;;22.87;nan;101448.38;5050480;28;20032;-60
2021/04/23 10:37:24;;;;;;;18.73;16.42;;;;;;;22.88;nan;101471.16;5051893;28;20180;-61
2021/04/23 10:39:49;;;;;;;14.60;12.40;;;;;;;22.94;nan;101470.41;5051138;28;20108;-61
2021/04/23 10:42:50;;;;;;;11.93;9.68;;;;;;;22.83;nan;101468.97;5051153;28;20020;-61
2021/04/23 10:45:15;;;;;;;7.38;6.32;;;;;;;22.84;nan;101465.19;5043775;28;20150;-61
2021/04/23 10:47:40;;;;;;;5.17;4.67;;;;;;;22.83;nan;101477.19;5055682;28;20036;-62
2021/04/23 10:50:09;;;;;;;5.15;4.38;;;;;;;22.74;nan;101462.69;5056090;28;20254;-60
2021/04/23 10:52:35;;;;;;;3.80;3.40;;;;;;;22.83;nan;101463.47;5054825;28;20464;-59
2021/04/23 10:55:06;;;;;;;3.75;2.80;;;;;;;22.86;nan;101474.09;5055884;28;20476;-63
2021/04/23 10:57:54;;;;;;;2.97;2.50;;;;;;;22.92;nan;101484.31;5037657;28;20037;-63
2021/04/23 11:00:47;;;;;;;2.22;2.03;;;;;;;22.89;nan;101470.97;5055752;28;20052;-60
2021/04/23 11:03:22;;;;;;;2.35;2.08;;;;;;;22.93;nan;101469.56;5043781;28;20048;-63
2021/04/23 11:06:11;;;;;;;1.52;1.42;;;;;;;22.86;nan;101471.34;5035833;28;20526;-63
2021/04/23 11:08:36;;;;;;;2.05;1.38;;;;;;;22.92;nan;101478.81;5052928;28;20029;-62
2021/04/23 11:11:02;;;;;;;1.58;1.20;;;;;;;22.90;nan;101483.66;5055041;28;20083;-63
2021/04/23 11:13:35;;;;;;;1.58;1.10;;;;;;;22.87;nan;101484.03;5055690;28;20354;-63
2021/04/23 11:16:16;;;;;;;1.20;1.10;;;;;;;22.92;nan;101484.31;5055875;28;20024;-63
2021/04/23 11:18:41;;;;;;;1.10;1.00;;;;;;;22.91;nan;101499.06;5037418;28;20029;-62
2021/04/23 11:21:35;;;;;;;0.90;0.85;;;;;;;22.89;nan;101479.19;5055010;28;20112;-63
2021/04/23 11:24:18;;;;;;;0.93;0.90;;;;;;;22.96;nan;101485.63;5049436;28;20021;-63
2021/04/23 11:26:53;;;;;;;0.57;0.55;;;;;;;22.92;nan;101499.91;5051003;28;20025;-63
2021/04/23 11:29:28;;;;;;;2.15;0.85;;;;;;;22.92;nan;101491.69;5047269;28;20075;-63
2021/04/23 11:32:11;;;;;;;1.13;0.50;;;;;;;22.93;nan;101507.09;5054864;28;20025;-62
2021/04/23 11:34:51;;;;;;;0.40;0.40;;;;;;;22.95;nan;101516.84;5052222;28;20029;-64
2021/04/23 11:37:19;;;;;;;0.50;0.50;;;;;;;22.89;nan;101501.13;5054022;28;20474;-60
2021/04/23 11:39:50;;;;;;;0.50;0.40;;;;;;;22.89;nan;101512.09;5054390;28;20464;-63
2021/04/23 11:42:28;;;;;;;0.85;0.45;;;;;;;22.75;nan;101499.19;5050862;28;20094;-62